This is the latest recevied weather packets stored in our database for station/object KC9DRE. If no packets are shown the sender has not sent any weather packets the latest 10 day(s).
| Time | Temp. | Humidity | Pressure | Rain* | Wind** | Luminosity | Snow |
|---|---|---|---|---|---|---|---|
| 1777596691 | 8.89° C | 77% | 1015.8 hPa | 0 mm | - | 0 W/m² | - |
| 1777596388 | 9.44° C | 75% | 1015.6 hPa | 0 mm | - | 1 W/m² | - |
| 1777596085 | 10° C | 73% | 1015.8 hPa | 0 mm | - | 2 W/m² | - |
| 1777595781 | 10° C | 72% | 1015.7 hPa | 0 mm | - | 3 W/m² | - |
| 1777595476 | 10.56° C | 71% | 1015.5 hPa | 0 mm | - | 4 W/m² | - |
| 1777595173 | 11.11° C | 69% | 1015.6 hPa | 0 mm | - | 7 W/m² | - |
| 1777594869 | 11.67° C | 67% | 1015.5 hPa | 0 mm | - | 10 W/m² | - |
| 1777594566 | 12.22° C | 64% | 1015.4 hPa | 0 mm | - | 13 W/m² | - |
| 1777594262 | 12.78° C | 61% | 1015.2 hPa | 0 mm | - | 16 W/m² | - |
| 1777593958 | 13.89° C | 58% | 1015.3 hPa | 0 mm | - | 20 W/m² | - |
| 1777593654 | 14.44° C | 56% | 1015.3 hPa | 0 mm | - | 24 W/m² | - |
| 1777593350 | 15.56° C | 53% | 1015.3 hPa | 0 mm | - | 26 W/m² | - |
| 1777593049 | 15.56° C | 52% | 1015.2 hPa | 0 mm | - | 31 W/m² | - |
| 1777592748 | 15° C | 50% | 1015.2 hPa | 0 mm | - | 39 W/m² | - |
| 1777592445 | 14.44° C | 52% | 1015.3 hPa | 0 mm | - | 43 W/m² | - |
| 1777592140 | 14.44° C | 53% | 1015.2 hPa | 0 mm | - | 49 W/m² | - |
| 1777591838 | 15° C | 52% | 1015.3 hPa | 0 mm | - | 39 W/m² | - |
| 1777591533 | 15.56° C | 48% | 1015.3 hPa | 0 mm | - | 40 W/m² | - |
| 1777591231 | 16.11° C | 43% | 1015.4 hPa | 0 mm | - | 71 W/m² | - |
| 1777590931 | 16.67° C | 40% | 1015.3 hPa | 0 mm | - | 56 W/m² | - |
| 1777590626 | 17.22° C | 37% | 1015.4 hPa | 0 mm | - | 78 W/m² | - |
| 1777590323 | 17.22° C | 38% | 1015.5 hPa | 0 mm | - | 108 W/m² | - |
| 1777590021 | 17.22° C | 36% | 1015.5 hPa | 0 mm | - | 125 W/m² | - |
| 1777589716 | 16.67° C | 36% | 1015.4 hPa | 0 mm | - | 138 W/m² | - |
| 1777589415 | 16.67° C | 36% | 1015.6 hPa | 0 mm | - | 151 W/m² | - |
* Rain latest hour (hover to see other rain measurements)
** Current wind speed in m/s (hover to see current wind gust speed)